Time;durP1;ratioP1;P1;durP2;ratioP2;P2;SDS_P1;SDS_P2;PMS_P1;PMS_P2;Temp;Humidity;BMP_temperature;BMP_pressure;BME280_temperature;BME280_humidity;BME280_pressure;Samples;Min_cycle;Max_cycle;Signal;HPM_P1;HPM_P2
2022/05/12 00:00:21;;;;;;;3.25;1.80;;;;;;;21.58;35.20;97388.41;10062639;29;20050;-75
2022/05/12 00:05:41;;;;;;;2.70;1.93;;;;;;;21.53;35.60;97393.31;10048722;29;20054;-74
2022/05/12 00:11:02;;;;;;;4.40;1.88;;;;;;;21.49;35.57;97401.00;10048450;29;20049;-74
2022/05/12 00:16:23;;;;;;;2.70;1.77;;;;;;;21.45;35.58;97389.59;10036306;29;20057;-74
2022/05/12 00:21:44;;;;;;;3.25;1.63;;;;;;;21.39;35.94;97396.56;10048194;29;20050;-75
2022/05/12 00:27:07;;;;;;;3.70;1.80;;;;;;;21.34;35.75;97389.38;10023004;29;20052;-73
2022/05/12 00:32:29;;;;;;;4.68;1.90;;;;;;;21.28;36.17;97394.94;10035198;29;20046;-73
2022/05/12 00:37:49;;;;;;;4.03;2.25;;;;;;;21.21;36.17;97399.00;10047501;29;20493;-74
2022/05/12 00:43:32;;;;;;;4.60;1.80;;;;;;;21.13;36.88;97402.44;10034730;29;20057;-73
2022/05/12 00:48:54;;;;;;;3.65;1.70;;;;;;;21.12;36.65;97386.06;10047006;29;20085;-74
2022/05/12 00:54:40;;;;;;;2.20;2.00;;;;;;;21.09;36.82;97404.44;10021914;29;20093;-74
2022/05/12 01:00:08;;;;;;;3.47;1.90;;;;;;;21.03;37.04;97404.31;10048731;29;20531;-74
2022/05/12 01:05:29;;;;;;;3.70;2.25;;;;;;;21.02;36.89;97411.38;10034123;29;20473;-74
2022/05/12 01:10:53;;;;;;;4.97;2.17;;;;;;;20.96;37.16;97394.97;10020964;29;20052;-74
2022/05/12 01:16:59;;;;;;;2.88;1.80;;;;;;;21.01;37.84;97395.75;10035228;29;20507;-74
2022/05/12 01:22:54;;;;;;;2.10;1.90;;;;;;;21.01;37.61;97390.81;9942206;29;20055;-74
2022/05/12 01:28:14;;;;;;;6.25;2.38;;;;;;;20.95;37.92;97387.84;10033193;29;20045;-74
2022/05/12 01:33:35;;;;;;;4.60;1.70;;;;;;;20.93;37.82;97389.91;10020333;29;20523;-74
2022/05/12 01:38:56;;;;;;;5.35;2.40;;;;;;;20.88;38.11;97388.41;10032095;29;20485;-75
2022/05/12 01:44:17;;;;;;;3.47;1.92;;;;;;;20.83;38.28;97396.81;10032815;29;20080;-75
2022/05/12 01:49:37;;;;;;;3.17;2.00;;;;;;;20.77;38.39;97396.69;10020087;29;20073;-75
2022/05/12 01:54:58;;;;;;;6.50;2.08;;;;;;;20.77;38.83;97391.03;10032753;29;20050;-74
2022/05/12 02:00:21;;;;;;;4.57;2.40;;;;;;;20.82;38.56;97386.16;10032530;29;20499;-74
2022/05/12 02:05:42;;;;;;;8.80;2.50;;;;;;;20.86;38.80;97381.28;10019487;29;20061;-74
2022/05/12 02:11:03;;;;;;;5.00;2.00;;;;;;;20.87;38.99;97390.53;10032176;29;20536;-73
2022/05/12 02:16:25;;;;;;;8.30;2.50;;;;;;;20.88;39.03;97382.72;10058743;29;20057;-75
2022/05/12 02:21:46;;;;;;;3.43;2.17;;;;;;;20.89;38.75;97390.56;10032565;29;20049;-74
2022/05/12 02:27:07;;;;;;;5.13;2.25;;;;;;;20.90;38.82;97392.00;10031828;29;20080;-74
2022/05/12 02:32:28;;;;;;;3.78;2.10;;;;;;;20.91;38.96;97395.56;10044521;29;20126;-74
2022/05/12 02:37:48;;;;;;;7.57;2.35;;;;;;;20.81;38.79;97398.88;10019406;29;20473;-74
2022/05/12 02:43:24;;;;;;;4.68;2.40;;;;;;;20.75;38.91;97379.63;10044179;29;20499;-74
2022/05/12 02:48:45;;;;;;;3.80;2.33;;;;;;;20.70;38.96;97395.09;10033660;29;20049;-75
2022/05/12 02:54:06;;;;;;;7.13;2.45;;;;;;;20.65;39.16;97410.56;10038138;29;20056;-75
2022/05/12 02:59:27;;;;;;;2.88;2.00;;;;;;;20.61;39.36;97409.78;9991877;29;20046;-75
2022/05/12 03:04:47;;;;;;;3.72;2.30;;;;;;;20.57;39.26;97396.25;10013271;29;20530;-75
2022/05/12 03:10:09;;;;;;;3.55;2.35;;;;;;;20.56;39.28;97401.19;10036194;29;20049;-75
2022/05/12 03:15:29;;;;;;;4.68;2.33;;;;;;;20.57;39.43;97405.47;10037985;29;20073;-75
2022/05/12 03:20:50;;;;;;;4.13;2.28;;;;;;;20.64;39.24;97416.94;10037367;29;20054;-75
2022/05/12 03:26:16;;;;;;;5.93;2.33;;;;;;;20.65;39.27;97416.25;10064049;29;20050;-74
2022/05/12 03:31:36;;;;;;;15.65;2.75;;;;;;;20.70;39.27;97412.13;10037188;29;20053;-75
2022/05/12 03:36:57;;;;;;;7.18;2.00;;;;;;;20.75;39.30;97424.25;10037308;29;20097;-74
2022/05/12 03:42:19;;;;;;;6.57;2.13;;;;;;;20.74;38.89;97443.41;10048418;29;20408;-74
2022/05/12 03:47:41;;;;;;;4.95;2.20;;;;;;;20.74;38.92;97451.19;10048451;29;20488;-76
2022/05/12 03:53:02;;;;;;;4.20;2.15;;;;;;;20.75;39.08;97441.28;10037851;29;20056;-79
2022/05/12 03:58:24;;;;;;;4.55;2.30;;;;;;;20.79;39.10;97438.56;10049407;29;20053;-75
2022/05/12 04:03:45;;;;;;;2.70;1.95;;;;;;;20.86;38.69;97457.16;10048955;29;20137;-75
2022/05/12 04:09:06;;;;;;;4.40;1.95;;;;;;;20.90;38.75;97450.84;10036273;29;20049;-75
2022/05/12 04:14:26;;;;;;;5.22;2.13;;;;;;;20.90;39.07;97462.19;10036190;29;20065;-74
2022/05/12 04:19:50;;;;;;;4.75;2.25;;;;;;;20.78;38.75;97463.38;10036220;29;20053;-86
2022/05/12 04:25:11;;;;;;;4.70;2.13;;;;;;;20.78;39.06;97474.00;10023818;29;20042;-84
2022/05/12 04:30:33;;;;;;;5.43;2.28;;;;;;;20.84;39.08;97482.63;10022913;29;20058;-75
2022/05/12 04:35:54;;;;;;;7.45;2.63;;;;;;;20.99;38.95;97501.41;10040560;29;20065;-75
2022/05/12 04:41:16;;;;;;;2.92;1.80;;;;;;;21.13;38.69;97506.69;10031384;29;20045;-75
2022/05/12 04:46:41;;;;;;;4.55;1.80;;;;;;;21.31;38.95;97521.31;10060645;29;20049;-75
2022/05/12 04:52:03;;;;;;;5.50;2.50;;;;;;;21.57;38.46;97526.84;10077972;29;20041;-76
2022/05/12 04:57:24;;;;;;;7.38;1.95;;;;;;;21.90;38.34;97531.03;10071984;29;20108;-75
2022/05/12 05:02:48;;;;;;;5.03;2.08;;;;;;;22.12;38.15;97527.94;10059728;29;20052;-75
2022/05/12 05:08:12;;;;;;;4.97;1.98;;;;;;;22.35;37.57;97531.19;10084533;29;20544;-75
2022/05/12 05:13:33;;;;;;;6.25;1.75;;;;;;;22.64;37.01;97529.56;10071016;29;20444;-77
2022/05/12 05:18:54;;;;;;;3.50;1.85;;;;;;;22.84;36.93;97549.81;10058475;29;20045;-75
2022/05/12 05:24:15;;;;;;;4.07;2.03;;;;;;;22.79;36.38;97548.31;10070619;29;20049;-74
2022/05/12 05:29:40;;;;;;;5.93;1.90;;;;;;;23.32;36.11;97551.97;10084445;29;20045;-77
2022/05/12 05:35:01;;;;;;;4.40;1.50;;;;;;;23.57;35.16;97562.31;10046593;29;20048;-75
2022/05/12 05:40:25;;;;;;;4.07;1.55;;;;;;;24.65;35.46;97560.72;10070952;29;20045;-77
2022/05/12 05:45:46;;;;;;;4.93;1.60;;;;;;;26.44;33.31;97583.94;10084347;29;20041;-80
2022/05/12 05:57:01;;;;;;;4.07;1.60;;;;;;;28.95;30.19;97590.53;10051870;29;20052;-77
2022/05/12 06:02:22;;;;;;;4.72;1.50;;;;;;;30.22;28.00;97586.41;10083189;29;20511;-77
2022/05/12 06:07:44;;;;;;;4.05;1.65;;;;;;;30.32;27.20;97595.63;10070525;29;20068;-76
2022/05/12 06:13:05;;;;;;;;;;;;;;;31.75;24.96;97611.41;10057920;29;20041;-76
2022/05/12 06:18:26;;;;;;;2.45;1.23;;;;;;;33.37;23.88;97605.72;10083343;29;20268;-75
2022/05/12 06:23:46;;;;;;;2.75;1.27;;;;;;;34.89;22.79;97615.22;10070166;29;20049;-78
2022/05/12 06:29:07;;;;;;;2.58;1.10;;;;;;;36.23;21.11;97621.56;10065205;29;20055;-77
2022/05/12 06:34:27;;;;;;;4.45;0.95;;;;;;;37.20;19.69;97626.50;10077482;29;20111;-81
2022/05/12 06:39:49;;;;;;;4.35;0.60;;;;;;;38.35;17.64;97636.91;10050342;29;20057;-81
2022/05/12 06:45:11;;;;;;;2.92;0.70;;;;;;;39.86;16.12;97647.13;10077473;29;20045;-79
2022/05/12 06:50:32;;;;;;;3.22;0.68;;;;;;;46.39;11.92;97665.75;10064198;29;20053;-85
2022/05/12 06:55:54;;;;;;;5.93;0.70;;;;;;;50.58;8.30;97673.53;10051798;29;20096;-81
2022/05/12 07:01:15;;;;;;;3.42;0.60;;;;;;;52.06;6.99;97675.84;10064397;29;20045;-80
2022/05/12 07:06:36;;;;;;;2.90;0.70;;;;;;;53.53;6.17;97686.47;10051590;29;20056;-81
2022/05/12 07:11:58;;;;;;;2.88;0.50;;;;;;;54.33;4.77;97678.38;10063610;29;20468;-78
2022/05/12 07:17:23;;;;;;;5.88;0.65;;;;;;;55.19;4.39;97687.22;10063099;29;20053;-77
2022/05/12 07:28:45;;;;;;;4.00;0.60;;;;;;;55.87;4.57;97692.66;10058671;29;20073;-78
2022/05/12 07:34:07;;;;;;;3.20;0.40;;;;;;;57.09;3.22;97695.78;10088972;29;20124;-79
2022/05/12 07:39:29;;;;;;;2.30;0.50;;;;;;;57.58;3.52;97701.66;10048647;29;20540;-78
2022/05/12 07:45:20;;;;;;;2.53;0.40;;;;;;;57.83;3.08;97717.94;10081079;29;20097;-78
2022/05/12 07:50:44;;;;;;;3.28;0.50;;;;;;;58.00;2.83;97715.84;10063325;29;20053;-78
2022/05/12 07:56:06;;;;;;;2.30;0.60;;;;;;;58.24;2.61;97712.72;10086004;29;20045;-81
2022/05/12 08:01:31;;;;;;;5.53;0.50;;;;;;;58.46;2.58;97721.84;10061556;29;20044;-79
2022/05/12 08:06:53;;;;;;;4.95;0.50;;;;;;;57.77;2.63;97733.03;10074684;29;20049;-79
2022/05/12 08:12:16;;;;;;;4.63;0.80;;;;;;;58.88;2.51;97732.91;10074388;29;20472;-81
2022/05/12 08:17:38;;;;;;;3.00;0.73;;;;;;;59.10;2.26;97743.63;10061366;29;20523;-78
2022/05/12 08:22:59;;;;;;;3.45;0.98;;;;;;;58.94;1.54;97741.09;10061272;29;20495;-78
2022/05/12 08:28:23;;;;;;;4.47;1.00;;;;;;;58.57;1.96;97753.56;10061311;29;20045;-78
2022/05/12 08:33:44;;;;;;;6.47;1.42;;;;;;;58.44;1.99;97740.13;10060761;29;20053;-81
2022/05/12 08:39:06;;;;;;;5.53;1.70;;;;;;;58.59;1.89;97756.28;10060504;29;20045;-81
2022/05/12 08:44:28;;;;;;;4.27;2.00;;;;;;;58.23;2.38;97774.44;10060476;29;20057;-81
2022/05/12 08:50:26;;;;;;;5.32;1.27;;;;;;;57.15;2.63;97784.97;10072321;29;20052;-81
2022/05/12 08:55:56;;;;;;;3.28;0.80;;;;;;;51.43;4.81;97779.69;10072593;29;20128;-81
2022/05/12 09:01:38;;;;;;;4.28;1.08;;;;;;;48.02;6.87;97782.56;10074074;29;20128;-80
2022/05/12 09:07:33;;;;;;;;;;;;;;;;;;;;;
2022/05/12 09:13:43;;;;;;;2.80;0.52;;;;;;;54.08;4.91;97782.63;10084595;29;20060;-78
2022/05/12 09:19:26;;;;;;;2.05;0.50;;;;;;;52.12;4.82;97796.59;10065791;29;20053;-78
2022/05/12 09:24:52;;;;;;;4.63;0.75;;;;;;;52.70;6.30;97806.31;10072481;29;20503;-81
2022/05/12 09:30:14;;;;;;;17.42;1.88;;;;;;;51.17;5.71;97801.50;10059033;29;20045;-80
2022/05/12 09:35:37;;;;;;;4.32;0.70;;;;;;;46.56;7.68;97807.53;10059336;29;20132;-81
2022/05/12 09:40:58;;;;;;;5.15;0.60;;;;;;;46.10;9.19;97812.50;10014806;29;20073;-81
2022/05/12 09:46:29;;;;;;;3.90;0.50;;;;;;;48.04;8.27;97824.47;10016034;29;20049;-80
2022/05/12 09:51:52;;;;;;;6.22;0.50;;;;;;;50.04;7.83;97827.78;10033836;29;20046;-81
2022/05/12 09:58:01;;;;;;;2.20;0.65;;;;;;;54.49;5.26;97814.63;10032767;29;20049;-82
2022/05/12 10:09:50;;;;;;;4.00;0.80;;;;;;;56.66;3.35;97802.97;10024850;29;20059;-80
2022/05/12 10:15:44;;;;;;;3.53;1.20;;;;;;;57.59;2.59;97790.03;10059904;29;20088;-79
2022/05/12 10:21:20;;;;;;;5.53;0.50;;;;;;;48.96;5.87;97817.38;10036534;29;20109;-80
2022/05/12 10:26:46;;;;;;;6.43;0.60;;;;;;;50.38;5.69;97820.91;10033186;29;20473;-80
2022/05/12 10:32:20;;;;;;;1.48;0.57;;;;;;;48.06;6.80;97823.59;10019736;29;20046;-80
2022/05/12 10:37:48;;;;;;;3.45;0.45;;;;;;;44.11;8.27;97830.25;10034365;29;20042;-81
2022/05/12 10:43:34;;;;;;;3.15;0.40;;;;;;;46.61;8.42;97822.66;10057909;29;20048;-82
2022/05/12 10:49:07;;;;;;;4.68;0.30;;;;;;;49.24;6.91;97831.25;10017416;29;20057;-79
2022/05/12 10:54:51;;;;;;;2.30;0.40;;;;;;;49.12;6.64;97818.22;10044697;29;20050;-80
2022/05/12 11:00:29;;;;;;;5.35;0.60;;;;;;;47.68;7.00;97825.25;10045394;29;20086;-83
2022/05/12 11:05:53;;;;;;;3.75;0.50;;;;;;;42.55;9.08;97821.00;10032158;29;20393;-78
2022/05/12 11:11:23;;;;;;;4.22;0.50;;;;;;;39.73;10.84;97814.25;10021840;29;20415;-79
2022/05/12 11:16:56;;;;;;;3.63;0.50;;;;;;;37.96;12.04;97815.59;10012303;29;20054;-79
2022/05/12 11:22:55;;;;;;;2.88;0.32;;;;;;;36.77;12.98;97807.78;10012068;29;20106;-79
2022/05/12 11:34:16;;;;;;;4.85;0.38;;;;;;;35.20;14.60;97807.09;10009328;29;20408;-79
2022/05/12 11:39:37;;;;;;;2.40;0.47;;;;;;;35.17;15.06;97799.22;10016073;29;20050;-76
2022/05/12 11:45:07;;;;;;;3.08;0.50;;;;;;;35.00;15.33;97793.19;10029609;29;20105;-75
2022/05/12 11:50:43;;;;;;;4.38;0.65;;;;;;;35.22;15.25;97798.31;10002359;29;20046;-76
2022/05/12 11:56:06;;;;;;;3.80;0.63;;;;;;;35.18;15.56;97794.84;10024189;29;20049;-80
2022/05/12 12:01:27;;;;;;;3.58;0.38;;;;;;;35.29;15.61;97802.47;10018764;29;20488;-75
2022/05/12 12:06:50;;;;;;;3.00;0.45;;;;;;;34.63;16.13;97788.41;10015380;29;20737;-76
2022/05/12 12:12:14;;;;;;;2.78;0.50;;;;;;;34.18;16.23;97805.56;10008495;29;20050;-77
2022/05/12 12:17:37;;;;;;;4.85;0.45;;;;;;;34.19;16.59;97807.69;10006142;29;20058;-78
2022/05/12 12:23:27;;;;;;;4.05;0.50;;;;;;;33.84;17.25;97808.53;9997370;29;20098;-76
2022/05/12 12:29:10;;;;;;;2.80;0.60;;;;;;;33.62;17.94;97814.16;10010353;29;20069;-79
2022/05/12 12:34:50;;;;;;;5.35;0.80;;;;;;;33.44;18.26;97806.59;10011202;29;20054;-80
2022/05/12 12:40:43;;;;;;;5.20;0.45;;;;;;;32.96;18.13;97803.28;10015807;29;20041;-77
2022/05/12 12:46:20;;;;;;;3.05;0.52;;;;;;;32.80;18.89;97809.34;10034778;29;20045;-78
2022/05/12 12:51:41;;;;;;;6.63;0.65;;;;;;;32.77;19.22;97800.03;10022223;29;20053;-77
2022/05/12 12:57:07;;;;;;;3.40;0.50;;;;;;;32.99;18.68;97810.44;10033947;29;20105;-77
2022/05/12 13:02:32;;;;;;;2.70;0.55;;;;;;;32.79;18.91;97802.88;10020593;29;20046;-79
2022/05/12 13:07:53;;;;;;;1.63;0.40;;;;;;;32.45;19.32;97804.28;10021162;29;20049;-77
2022/05/12 13:13:14;;;;;;;3.10;0.40;;;;;;;31.96;19.36;97810.16;10059211;29;20429;-78
2022/05/12 13:18:45;;;;;;;1.17;0.38;;;;;;;31.74;19.69;97805.44;10046353;29;20477;-77
2022/05/12 13:24:27;;;;;;;4.93;0.73;;;;;;;31.80;19.64;97803.19;10033438;29;20054;-76
2022/05/12 13:29:48;;;;;;;1.90;0.30;;;;;;;31.48;19.90;97787.09;10033385;29;20109;-76
2022/05/12 13:35:28;;;;;;;4.18;0.40;;;;;;;31.05;20.64;97802.06;10033491;29;20049;-79
2022/05/12 13:40:51;;;;;;;1.90;0.50;;;;;;;31.11;20.48;97783.28;10020663;29;20049;-80
2022/05/12 13:46:15;;;;;;;3.88;0.50;;;;;;;31.18;20.94;97787.50;10032815;29;20052;-77
2022/05/12 13:51:43;;;;;;;3.47;0.40;;;;;;;30.94;21.00;97794.28;10059058;29;20491;-78
2022/05/12 13:57:37;;;;;;;3.83;0.35;;;;;;;30.77;21.37;97773.59;10045110;29;20049;-76
2022/05/12 14:03:18;;;;;;;3.08;0.32;;;;;;;30.62;21.42;97770.16;10032481;29;20046;-88
2022/05/12 14:08:39;;;;;;;2.03;0.30;;;;;;;30.42;21.30;97770.41;10032950;29;20046;-84
2022/05/12 14:19:49;;;;;;;2.65;0.70;;;;;;;30.35;21.98;97766.88;10025338;29;20041;-78
2022/05/12 14:25:11;;;;;;;4.45;0.50;;;;;;;30.40;21.54;97765.38;10008503;29;20605;-78
2022/05/12 14:30:33;;;;;;;2.10;0.45;;;;;;;30.33;21.70;97764.03;10021628;29;20128;-80
2022/05/12 14:35:54;;;;;;;1.90;0.40;;;;;;;30.32;21.57;97762.59;10031327;29;20045;-81
2022/05/12 14:44:47;;;;;;;3.95;0.57;;;;;;;29.96;22.16;97757.88;10616629;27;1349901;-78
2022/05/12 14:50:09;;;;;;;2.87;0.40;;;;;;;29.92;22.47;97763.69;10603377;28;20047;-80
2022/05/12 14:55:31;;;;;;;5.68;0.60;;;;;;;29.84;22.49;97758.72;10575096;28;20067;-80
2022/05/12 15:00:52;;;;;;;1.50;0.40;;;;;;;29.81;22.41;97760.16;10574735;28;20396;-79
2022/05/12 15:06:14;;;;;;;2.42;0.50;;;;;;;29.68;22.60;97761.00;10586032;28;20350;-80
2022/05/12 15:11:35;;;;;;;4.97;0.50;;;;;;;29.43;22.70;97754.69;10569471;28;20036;-81
2022/05/12 15:16:57;;;;;;;4.30;0.40;;;;;;;29.34;22.96;97756.94;10572221;28;20258;-79
2022/05/12 15:22:18;;;;;;;2.22;0.40;;;;;;;29.15;23.10;97755.63;10545873;28;20043;-81
2022/05/12 15:27:39;;;;;;;3.22;0.40;;;;;;;28.97;22.95;97759.31;10545744;28;20097;-81
2022/05/12 15:33:00;;;;;;;1.93;0.43;;;;;;;28.79;23.27;97760.78;10553269;28;20063;-76
2022/05/12 15:38:23;;;;;;;3.03;0.47;;;;;;;28.44;23.77;97765.22;10601849;28;20046;-82
2022/05/12 15:43:45;;;;;;;3.83;0.40;;;;;;;28.37;24.29;97755.19;10551443;28;20062;-78
2022/05/12 15:49:11;;;;;;;2.27;0.37;;;;;;;28.36;24.33;97745.16;10531343;28;20047;-79
2022/05/12 15:54:32;;;;;;;2.55;0.50;;;;;;;28.31;24.56;97743.75;10497304;28;20040;-81
2022/05/12 15:59:54;;;;;;;2.22;0.55;;;;;;;28.32;24.21;97745.19;10537956;28;20111;-78
2022/05/12 16:05:15;;;;;;;3.57;0.33;;;;;;;28.39;24.68;97747.31;10516719;28;20439;-77
2022/05/12 16:10:38;;;;;;;1.48;0.43;;;;;;;28.38;24.47;97745.16;10515434;28;20047;-80
2022/05/12 16:16:00;;;;;;;3.88;0.50;;;;;;;28.21;24.57;97748.03;10515486;28;20080;-79
2022/05/12 16:21:21;;;;;;;2.37;0.30;;;;;;;28.09;24.71;97739.47;10515464;28;20044;-76
2022/05/12 16:26:44;;;;;;;4.28;0.55;;;;;;;28.06;24.87;97740.91;10501470;28;20044;-77
2022/05/12 16:32:05;;;;;;;1.88;0.40;;;;;;;27.96;24.88;97746.66;10529286;28;20094;-76
2022/05/12 16:37:27;;;;;;;4.20;0.40;;;;;;;27.86;24.69;97744.50;10515337;28;20085;-75
2022/05/12 16:42:48;;;;;;;2.85;0.60;;;;;;;27.75;25.12;97739.50;10499672;28;20059;-88
2022/05/12 16:48:10;;;;;;;1.13;0.30;;;;;;;27.65;25.16;97732.34;10505164;28;20692;-83
2022/05/12 16:53:31;;;;;;;1.75;0.45;;;;;;;27.55;25.16;97734.47;10458971;28;20048;-78
2022/05/12 16:58:52;;;;;;;1.10;0.30;;;;;;;27.24;25.27;97730.88;10472488;28;20463;-77
2022/05/12 17:04:13;;;;;;;2.28;0.43;;;;;;;27.13;25.60;97733.00;10491368;28;20047;-80
2022/05/12 17:09:34;;;;;;;2.58;0.40;;;;;;;27.13;25.91;97733.00;10499553;28;20043;-75
2022/05/12 17:14:57;;;;;;;4.28;0.45;;;;;;;27.00;25.72;97725.78;10527472;28;20425;-74
2022/05/12 17:20:19;;;;;;;2.80;0.40;;;;;;;26.91;25.85;97727.19;10513447;28;20040;-74
2022/05/12 17:25:40;;;;;;;2.33;0.32;;;;;;;26.85;25.89;97725.03;10498926;28;20051;-74
2022/05/12 17:31:00;;;;;;;1.95;0.45;;;;;;;26.80;26.46;97729.31;10499026;28;20040;-74
2022/05/12 17:36:26;;;;;;;4.78;0.70;;;;;;;26.72;26.68;97732.13;10513826;28;20044;-74
2022/05/12 17:41:46;;;;;;;2.00;0.38;;;;;;;26.69;26.37;97740.00;10525933;28;20060;-75
2022/05/12 17:47:09;;;;;;;6.57;0.77;;;;;;;26.62;26.82;97734.97;10498203;28;20161;-76
2022/05/12 17:52:30;;;;;;;3.95;0.52;;;;;;;26.51;27.03;97740.66;10512234;28;20044;-76
2022/05/12 17:57:51;;;;;;;7.38;0.90;;;;;;;26.41;27.18;97734.88;10499112;28;20044;-75
2022/05/12 18:03:13;;;;;;;1.97;0.60;;;;;;;26.24;27.23;97747.63;10526083;28;20043;-76
2022/05/12 18:08:33;;;;;;;1.05;0.30;;;;;;;26.06;27.63;97745.41;10525581;28;20477;-76
2022/05/12 18:13:55;;;;;;;1.67;0.50;;;;;;;25.90;27.77;97753.88;10525531;28;20040;-74
2022/05/12 18:19:15;;;;;;;2.15;0.57;;;;;;;25.68;27.54;97748.69;10510887;28;20473;-77
2022/05/12 18:24:37;;;;;;;4.28;0.40;;;;;;;25.56;27.78;97769.28;10497364;28;20046;-74
2022/05/12 18:29:57;;;;;;;3.42;0.60;;;;;;;25.36;27.79;97766.25;10524671;28;20466;-74
2022/05/12 18:35:18;;;;;;;4.50;0.75;;;;;;;25.29;28.11;97767.63;10510617;28;20070;-74
2022/05/12 18:40:39;;;;;;;3.17;0.40;;;;;;;25.23;28.22;97778.97;10496274;28;20048;-75
2022/05/12 18:46:00;;;;;;;4.60;0.55;;;;;;;25.14;28.12;97789.59;10496809;28;20397;-74
2022/05/12 18:51:21;;;;;;;2.30;0.47;;;;;;;24.73;28.95;97800.53;10524606;28;20040;-74
2022/05/12 18:56:42;;;;;;;2.45;0.50;;;;;;;24.47;29.27;97808.72;10510359;28;20047;-74
2022/05/12 19:02:03;;;;;;;4.32;0.60;;;;;;;24.24;29.84;97799.84;10508385;28;20036;-77
2022/05/12 19:07:24;;;;;;;5.78;0.80;;;;;;;24.10;30.04;97813.16;10454766;28;20474;-77
2022/05/12 19:12:46;;;;;;;3.23;0.40;;;;;;;23.91;30.88;97826.41;10468175;28;20098;-76
2022/05/12 19:18:11;;;;;;;2.45;0.50;;;;;;;23.68;31.12;97833.88;10468267;28;20051;-77
2022/05/12 19:23:32;;;;;;;4.05;0.70;;;;;;;23.75;32.03;97837.56;10454179;28;20037;-76
2022/05/12 19:28:54;;;;;;;3.88;0.68;;;;;;;23.43;32.24;97849.75;10478134;28;20121;-80
2022/05/12 19:34:14;;;;;;;3.75;1.52;;;;;;;23.22;32.55;97848.66;10503526;28;20079;-76
2022/05/12 19:39:35;;;;;;;3.28;1.20;;;;;;;23.06;32.95;97860.44;10515441;28;20040;-74
2022/05/12 19:44:56;;;;;;;6.80;0.85;;;;;;;23.05;33.26;97858.28;10514134;28;20062;-74
2022/05/12 19:50:18;;;;;;;3.15;0.60;;;;;;;22.99;33.29;97855.34;10484674;28;20071;-75
2022/05/12 19:55:40;;;;;;;4.50;0.40;;;;;;;23.02;33.51;97854.69;10497805;28;20603;-76
2022/05/12 20:01:01;;;;;;;3.72;0.70;;;;;;;22.81;33.45;97858.50;10497597;28;21108;-74
2022/05/12 20:06:21;;;;;;;2.50;0.55;;;;;;;22.72;33.68;97859.72;10524100;28;20563;-76
2022/05/12 20:11:42;;;;;;;5.88;0.50;;;;;;;22.57;33.65;97861.50;10496711;28;20447;-75
2022/05/12 20:17:03;;;;;;;1.77;0.50;;;;;;;22.49;33.74;97867.78;10508709;28;20047;-74
2022/05/12 20:22:24;;;;;;;4.13;0.50;;;;;;;22.49;33.61;97872.75;10515381;28;20063;-74
2022/05/12 20:27:45;;;;;;;2.25;0.50;;;;;;;22.26;33.75;97868.63;10496431;28;20424;-76
2022/05/12 20:33:06;;;;;;;4.53;0.82;;;;;;;22.23;34.26;97879.25;10509977;28;20032;-74
2022/05/12 20:38:27;;;;;;;3.97;0.75;;;;;;;22.23;33.93;97881.38;10484024;28;20101;-75
2022/05/12 20:43:48;;;;;;;3.10;0.73;;;;;;;22.07;34.45;97895.19;10509689;28;20087;-74
2022/05/12 20:49:09;;;;;;;3.40;0.40;;;;;;;22.06;34.31;97905.81;10496553;28;20506;-74
2022/05/12 20:54:30;;;;;;;2.92;0.50;;;;;;;21.98;34.29;97906.31;10498521;28;20389;-74
2022/05/12 20:59:51;;;;;;;4.15;0.68;;;;;;;21.91;34.24;97918.22;10498299;28;20044;-74
2022/05/12 21:05:12;;;;;;;1.70;0.60;;;;;;;21.83;34.71;97913.03;10498187;28;20512;-74
2022/05/12 21:10:32;;;;;;;1.65;0.43;;;;;;;21.91;34.86;97921.78;10541560;28;20047;-74
2022/05/12 21:15:53;;;;;;;4.82;0.80;;;;;;;21.73;34.98;97920.59;10511688;28;20397;-74
2022/05/12 21:21:13;;;;;;;6.03;0.57;;;;;;;21.74;35.03;97917.06;10497198;28;20068;-74
2022/05/12 21:26:34;;;;;;;6.00;0.50;;;;;;;21.74;34.91;97925.59;10511264;28;20109;-74
2022/05/12 21:31:55;;;;;;;3.72;0.80;;;;;;;21.70;34.87;97919.78;10510736;28;20040;-74
2022/05/12 21:37:15;;;;;;;2.55;0.60;;;;;;;21.60;35.29;97917.41;10524652;28;20044;-74
2022/05/12 21:42:39;;;;;;;3.15;0.55;;;;;;;21.54;35.04;97914.41;10497409;28;20497;-74
2022/05/12 21:48:10;;;;;;;3.45;0.60;;;;;;;21.56;35.33;97910.91;10510326;28;20389;-74
2022/05/12 21:53:43;;;;;;;3.30;0.57;;;;;;;21.52;35.46;97913.63;10509755;28;20396;-74
2022/05/12 22:04:43;;;;;;;6.32;0.80;;;;;;;21.42;35.41;97916.91;10512028;28;19984;-76
2022/05/12 22:10:05;;;;;;;2.47;0.47;;;;;;;21.40;35.49;97919.69;10523822;28;20105;-75
2022/05/12 22:15:25;;;;;;;3.65;0.70;;;;;;;21.33;35.53;97904.63;10495406;28;20059;-76
2022/05/12 22:20:46;;;;;;;3.08;0.52;;;;;;;21.18;35.37;97902.72;10538346;28;20145;-75
2022/05/12 22:26:07;;;;;;;3.17;0.60;;;;;;;21.01;35.88;97895.13;10494973;28;20078;-74
2022/05/12 22:31:28;;;;;;;1.05;0.40;;;;;;;21.06;35.55;97893.88;10538184;28;20047;-74
2022/05/12 22:36:48;;;;;;;8.65;0.93;;;;;;;21.04;35.69;97896.66;10495041;28;20047;-74
2022/05/12 22:42:09;;;;;;;1.75;0.50;;;;;;;20.94;35.96;97893.50;10494950;28;20059;-75
2022/05/12 22:47:29;;;;;;;5.47;0.80;;;;;;;20.89;36.27;97903.31;10508804;28;20063;-75
2022/05/12 22:52:50;;;;;;;1.85;0.70;;;;;;;20.81;36.46;97910.19;10522370;28;20485;-74
2022/05/12 22:58:11;;;;;;;5.07;1.42;;;;;;;20.69;36.66;97909.81;10508549;28;20101;-74
2022/05/12 23:03:32;;;;;;;3.25;0.68;;;;;;;20.58;36.99;97902.41;10497486;28;20121;-74
2022/05/12 23:08:53;;;;;;;4.55;0.70;;;;;;;20.49;36.87;97898.59;10502846;28;20469;-74
2022/05/12 23:14:14;;;;;;;3.75;0.70;;;;;;;20.26;37.39;97891.44;10516579;28;20044;-74
2022/05/12 23:25:14;;;;;;;2.13;0.52;;;;;;;19.98;38.00;97893.38;10532873;28;20040;-75
2022/05/12 23:30:35;;;;;;;1.92;0.50;;;;;;;19.86;38.42;97907.84;10515754;28;20531;-74
2022/05/12 23:35:56;;;;;;;2.05;0.60;;;;;;;19.77;38.51;97891.25;10501605;28;20071;-74
2022/05/12 23:41:34;;;;;;;1.52;0.60;;;;;;;19.59;38.71;97897.75;10508681;28;20083;-74
2022/05/12 23:46:56;;;;;;;4.05;0.70;;;;;;;19.53;39.00;97911.66;10500385;28;20040;-75
2022/05/12 23:52:19;;;;;;;2.78;0.70;;;;;;;19.50;38.94;97898.81;10528091;28;20056;-74
2022/05/12 23:57:40;;;;;;;4.03;0.90;;;;;;;19.43;39.47;97906.38;10528736;28;20040;-74
